Time;durP1;ratioP1;P1;durP2;ratioP2;P2;SDS_P1;SDS_P2;PMS_P1;PMS_P2;Temp;Humidity;BMP_temperature;BMP_pressure;BME280_temperature;BME280_humidity;BME280_pressure;Samples;Min_cycle;Max_cycle;Signal;HPM_P1;HPM_P2
2024/02/13 00:02:51;;;;;;;25.92;13.18;;;;;;;3.76;100.00;100185.50;10394435;28;20061;-78
2024/02/13 00:07:54;;;;;;;22.60;12.38;;;;;;;3.96;100.00;100195.88;10399249;28;20056;-79
2024/02/13 00:12:58;;;;;;;20.63;12.05;;;;;;;3.87;100.00;100197.25;10399758;28;20157;-77
2024/02/13 00:18:03;;;;;;;16.15;8.57;;;;;;;3.80;100.00;100209.16;10376538;28;20042;-79
2024/02/13 00:23:07;;;;;;;24.40;13.45;;;;;;;3.84;100.00;100213.38;10412547;28;20049;-77
2024/02/13 00:28:11;;;;;;;26.17;15.45;;;;;;;4.01;100.00;100216.91;10395299;28;20516;-78
2024/02/13 00:33:15;;;;;;;29.70;14.10;;;;;;;3.86;100.00;100219.44;10378502;28;20041;-78
2024/02/13 00:38:18;;;;;;;22.10;13.57;;;;;;;3.80;100.00;100226.91;10397480;28;20083;-79
2024/02/13 00:43:22;;;;;;;28.58;14.95;;;;;;;3.66;100.00;100223.22;10403207;28;20079;-77
2024/02/13 00:48:30;;;;;;;32.22;15.77;;;;;;;3.80;100.00;100243.72;10409848;28;20079;-78
2024/02/13 00:53:33;;;;;;;26.85;13.88;;;;;;;3.83;100.00;100245.34;10411914;28;20053;-80
2024/02/13 00:58:36;;;;;;;30.67;14.70;;;;;;;3.77;100.00;100245.69;10407574;28;20049;-77
2024/02/13 01:03:41;;;;;;;27.80;14.80;;;;;;;3.47;100.00;100262.34;10448015;28;20053;-77
2024/02/13 01:08:44;;;;;;;26.83;14.05;;;;;;;3.44;100.00;100270.47;10416321;28;20048;-78
2024/02/13 01:13:47;;;;;;;31.20;14.85;;;;;;;3.46;100.00;100271.25;10421584;28;20044;-79
2024/02/13 01:18:52;;;;;;;27.40;14.35;;;;;;;3.17;100.00;100284.25;10418291;28;20037;-80
2024/02/13 01:23:55;;;;;;;32.63;15.07;;;;;;;3.31;100.00;100283.53;10422738;28;20049;-76
2024/02/13 01:28:58;;;;;;;30.42;16.00;;;;;;;3.27;100.00;100290.81;10444682;28;20087;-79
2024/02/13 01:34:02;;;;;;;31.65;14.35;;;;;;;3.34;100.00;100285.16;10402245;28;20053;-79
2024/02/13 01:39:06;;;;;;;30.33;14.93;;;;;;;3.22;100.00;100294.63;10439237;28;20131;-79
2024/02/13 01:44:09;;;;;;;34.72;16.25;;;;;;;3.37;100.00;100309.75;10446897;28;20512;-78
2024/02/13 01:49:14;;;;;;;33.20;15.95;;;;;;;3.42;100.00;100312.19;10424447;28;20042;-78
2024/02/13 01:54:18;;;;;;;35.20;16.05;;;;;;;3.35;100.00;100306.34;10415820;28;20366;-79
2024/02/13 01:59:22;;;;;;;35.28;16.42;;;;;;;3.63;100.00;100304.88;10441425;28;20060;-77
2024/02/13 02:04:28;;;;;;;33.70;16.80;;;;;;;3.65;100.00;100313.63;10414390;28;20064;-78
2024/02/13 02:09:31;;;;;;;34.80;16.58;;;;;;;3.64;100.00;100315.41;10419787;28;20053;-77
2024/02/13 02:14:34;;;;;;;31.80;15.52;;;;;;;3.56;100.00;100314.09;10443112;28;20048;-78
2024/02/13 02:19:39;;;;;;;31.13;15.77;;;;;;;3.56;100.00;100320.28;10462711;28;20526;-79
2024/02/13 02:24:42;;;;;;;35.70;16.95;;;;;;;3.66;100.00;100326.81;10458314;28;20048;-77
2024/02/13 02:29:47;;;;;;;29.00;15.63;;;;;;;3.47;100.00;100337.56;10400228;28;20048;-79
2024/02/13 02:34:51;;;;;;;30.05;17.00;;;;;;;3.27;100.00;100335.09;10396666;28;20056;-77
2024/02/13 02:39:54;;;;;;;35.55;17.83;;;;;;;3.27;100.00;100335.94;10397223;28;20077;-78
2024/02/13 02:44:58;;;;;;;35.67;17.70;;;;;;;3.33;100.00;100345.38;10404917;28;20135;-78
2024/02/13 02:50:02;;;;;;;42.55;18.15;;;;;;;3.32;100.00;100356.94;10415030;28;20116;-78
2024/02/13 02:55:06;;;;;;;36.72;19.77;;;;;;;3.26;100.00;100357.25;10427028;28;20106;-79
2024/02/13 03:00:14;;;;;;;42.15;20.20;;;;;;;3.44;100.00;100369.59;10438633;28;20055;-77
2024/02/13 03:05:17;;;;;;;45.92;20.27;;;;;;;3.39;100.00;100357.47;10441513;28;20140;-79
2024/02/13 03:10:21;;;;;;;48.65;19.95;;;;;;;3.59;100.00;100356.44;10431676;28;20417;-79
2024/02/13 03:15:27;;;;;;;46.25;20.33;;;;;;;3.49;100.00;100356.06;10431610;28;20140;-80
2024/02/13 03:20:30;;;;;;;44.58;21.35;;;;;;;3.68;100.00;100356.81;10420047;28;20147;-80
2024/02/13 03:25:33;;;;;;;52.75;19.77;;;;;;;3.36;100.00;100366.47;10406828;28;20053;-79
2024/02/13 03:30:37;;;;;;;57.22;23.33;;;;;;;3.49;100.00;100379.97;10402560;28;20243;-78
2024/02/13 03:35:41;;;;;;;39.00;16.23;;;;;;;3.41;100.00;100388.34;10436519;28;20060;-77
2024/02/13 03:40:44;;;;;;;41.85;22.77;;;;;;;3.41;100.00;100390.13;10449634;28;20547;-79
2024/02/13 03:45:49;;;;;;;41.05;19.95;;;;;;;3.27;100.00;100391.69;10444994;28;20445;-79
2024/02/13 03:50:52;;;;;;;51.75;24.73;;;;;;;3.25;100.00;100398.88;10443843;28;20068;-78
2024/02/13 03:55:55;;;;;;;59.13;28.13;;;;;;;3.73;100.00;100394.66;10435938;28;20067;-79
2024/02/13 04:00:59;;;;;;;53.67;25.45;;;;;;;3.65;100.00;100393.34;10437823;28;20558;-78
2024/02/13 04:06:02;;;;;;;45.17;25.23;;;;;;;3.64;100.00;100395.09;10418101;28;20455;-80
2024/02/13 04:11:06;;;;;;;51.90;24.67;;;;;;;3.61;100.00;100384.63;10424878;28;20524;-78
2024/02/13 04:16:10;;;;;;;49.20;25.90;;;;;;;3.56;100.00;100388.47;10443635;28;20041;-78
2024/02/13 04:21:17;;;;;;;57.53;27.67;;;;;;;3.55;100.00;100386.78;10431254;28;20037;-78
2024/02/13 04:26:22;;;;;;;51.10;26.60;;;;;;;3.54;100.00;100393.88;10437135;28;20066;-79
2024/02/13 04:31:39;;;;;;;59.28;28.50;;;;;;;3.57;100.00;100392.88;10438191;28;20045;-79
2024/02/13 04:36:43;;;;;;;54.20;26.40;;;;;;;3.46;100.00;100388.97;10432730;28;21104;-79
2024/02/13 04:41:46;;;;;;;60.17;28.80;;;;;;;3.45;100.00;100389.88;10447358;28;20536;-78
2024/02/13 04:46:51;;;;;;;58.05;27.02;;;;;;;3.45;100.00;100391.69;10431864;28;20056;-77
2024/02/13 04:51:54;;;;;;;51.70;26.98;;;;;;;3.49;100.00;100378.19;10431647;28;21300;-79
2024/02/13 04:56:59;;;;;;;57.97;26.92;;;;;;;3.47;100.00;100379.19;10437885;28;20037;-78
2024/02/13 05:02:05;;;;;;;58.35;30.40;;;;;;;3.51;100.00;100378.06;10438172;28;20053;-78
2024/02/13 05:07:20;;;;;;;60.88;30.98;;;;;;;3.58;100.00;100375.97;10438145;28;20051;-79
2024/02/13 05:12:23;;;;;;;66.57;28.27;;;;;;;3.50;100.00;100379.88;10426993;28;20487;-79
2024/02/13 05:17:28;;;;;;;58.83;26.90;;;;;;;3.42;100.00;100374.09;10433066;28;20045;-79
2024/02/13 05:22:31;;;;;;;58.22;28.58;;;;;;;3.55;100.00;100373.50;10430604;28;20041;-78
2024/02/13 05:27:34;;;;;;;50.95;24.40;;;;;;;3.50;100.00;100368.41;10438046;28;20059;-76
2024/02/13 05:32:39;;;;;;;49.50;20.65;;;;;;;3.19;100.00;100364.69;10399167;28;20056;-79
2024/02/13 05:37:42;;;;;;;50.58;20.50;;;;;;;3.28;100.00;100363.34;10385162;28;20060;-76
2024/02/13 05:42:45;;;;;;;46.00;20.13;;;;;;;3.30;100.00;100371.25;10399687;28;20069;-76
2024/02/13 05:47:50;;;;;;;42.25;19.80;;;;;;;3.33;100.00;100368.44;10402221;28;20041;-79
2024/02/13 05:52:53;;;;;;;42.92;20.77;;;;;;;3.44;100.00;100369.59;10421987;28;20053;-80
2024/02/13 05:57:58;;;;;;;46.95;21.10;;;;;;;3.39;100.00;100370.75;10388934;28;20053;-79
2024/02/13 06:03:05;;;;;;;43.42;19.13;;;;;;;3.33;100.00;100379.91;10396320;28;21012;-80
2024/02/13 06:08:08;;;;;;;38.10;18.33;;;;;;;3.37;100.00;100394.72;10398592;28;20080;-80
2024/02/13 06:13:11;;;;;;;35.97;17.35;;;;;;;3.14;100.00;100390.59;10376737;28;20725;-78
2024/02/13 06:18:15;;;;;;;32.22;17.35;;;;;;;3.24;100.00;100393.66;10387030;28;20521;-79
2024/02/13 06:23:18;;;;;;;35.90;17.55;;;;;;;3.13;100.00;100412.78;10374967;28;20057;-78
2024/02/13 06:28:21;;;;;;;34.75;17.17;;;;;;;3.33;100.00;100405.59;10383244;28;20045;-76
2024/02/13 06:33:25;;;;;;;34.33;15.40;;;;;;;3.30;100.00;100409.25;10392414;28;20509;-77
2024/02/13 06:38:29;;;;;;;35.35;17.73;;;;;;;3.35;100.00;100409.03;10403166;28;20052;-80
2024/02/13 06:43:32;;;;;;;38.90;18.02;;;;;;;3.31;100.00;100402.16;10397576;28;20050;-78
2024/02/13 06:48:39;;;;;;;32.33;16.55;;;;;;;3.43;100.00;100425.44;10430170;28;20057;-77
2024/02/13 06:53:42;;;;;;;34.53;15.93;;;;;;;3.52;100.00;100424.97;10455186;28;20067;-78
2024/02/13 06:58:46;;;;;;;30.73;15.45;;;;;;;3.56;100.00;100429.16;10439906;28;20052;-78
2024/02/13 07:03:50;;;;;;;31.75;17.20;;;;;;;3.52;100.00;100440.91;10444230;28;20045;-79
2024/02/13 07:08:53;;;;;;;28.63;14.15;;;;;;;3.63;100.00;100440.38;10442366;28;20048;-78
2024/02/13 07:13:56;;;;;;;31.98;12.35;;;;;;;3.46;100.00;100447.38;10437920;28;20041;-78
2024/02/13 07:19:01;;;;;;;30.10;13.95;;;;;;;3.34;100.00;100455.09;10438937;28;20431;-79
2024/02/13 07:24:04;;;;;;;28.50;15.48;;;;;;;3.47;100.00;100457.06;10452469;28;20081;-79
2024/02/13 07:29:09;;;;;;;35.45;15.27;;;;;;;3.66;100.00;100462.31;10445133;28;20047;-79
2024/02/13 07:34:13;;;;;;;37.63;18.60;;;;;;;3.70;100.00;100460.34;10398635;28;20049;-77
2024/02/13 07:39:16;;;;;;;31.67;17.30;;;;;;;3.88;100.00;100467.38;10395086;28;20069;-76
2024/02/13 07:44:21;;;;;;;36.35;16.80;;;;;;;3.73;100.00;100469.03;10397268;28;20072;-76
2024/02/13 07:49:26;;;;;;;30.48;14.45;;;;;;;3.36;100.00;100485.97;10429602;28;20047;-77
2024/02/13 07:54:29;;;;;;;31.30;15.18;;;;;;;3.32;100.00;100491.47;10450008;28;20159;-77
2024/02/13 07:59:32;;;;;;;47.80;19.65;;;;;;;3.49;100.00;100510.13;10434108;28;21241;-81
2024/02/13 08:04:37;;;;;;;29.02;14.90;;;;;;;3.73;100.00;100506.25;10470524;28;20067;-79
2024/02/13 08:09:40;;;;;;;29.60;14.77;;;;;;;4.04;100.00;100494.03;10442436;28;20053;-79
2024/02/13 08:14:43;;;;;;;35.80;18.42;;;;;;;4.23;100.00;100496.59;10449996;28;20048;-79
2024/02/13 08:19:48;;;;;;;25.25;13.52;;;;;;;3.66;100.00;100501.31;10428151;28;20089;-80
2024/02/13 08:24:51;;;;;;;38.80;19.40;;;;;;;3.88;100.00;100504.59;10408455;28;20175;-81
2024/02/13 08:29:54;;;;;;;33.78;15.50;;;;;;;3.87;100.00;100508.19;10404934;28;20077;-77
2024/02/13 08:34:59;;;;;;;37.05;17.25;;;;;;;3.95;100.00;100513.13;10419403;28;20047;-78
2024/02/13 08:40:02;;;;;;;38.53;18.45;;;;;;;3.92;100.00;100523.88;10431045;28;20049;-79
2024/02/13 08:45:07;;;;;;;35.10;18.17;;;;;;;4.29;100.00;100543.25;10403165;28;20060;-78
2024/02/13 08:50:12;;;;;;;39.85;16.98;;;;;;;4.27;100.00;100537.16;10436582;28;20061;-77
2024/02/13 08:55:16;;;;;;;37.13;16.88;;;;;;;4.14;100.00;100542.25;10441577;28;20141;-77
2024/02/13 09:00:20;;;;;;;34.50;17.20;;;;;;;3.87;100.00;100528.59;10439489;28;20044;-78
2024/02/13 09:05:24;;;;;;;32.28;15.32;;;;;;;4.18;100.00;100536.69;10442899;28;20048;-79
2024/02/13 09:10:27;;;;;;;34.00;15.23;;;;;;;4.29;100.00;100545.94;10418206;28;20092;-79
2024/02/13 09:15:30;;;;;;;32.95;17.95;;;;;;;4.40;100.00;100546.22;10427609;28;20045;-78
2024/02/13 09:20:35;;;;;;;28.73;14.93;;;;;;;4.68;100.00;100550.91;10422657;28;20709;-78
2024/02/13 09:25:39;;;;;;;37.80;17.30;;;;;;;5.10;98.25;100556.69;10431289;28;20058;-78
2024/02/13 09:30:42;;;;;;;15.07;9.35;;;;;;;4.86;98.39;100556.22;10437602;28;20048;-79
2024/02/13 09:35:50;;;;;;;29.98;13.95;;;;;;;5.00;98.24;100564.34;10435343;28;20071;-80
2024/02/13 09:40:53;;;;;;;19.52;9.95;;;;;;;4.86;99.57;100578.34;10454799;28;20054;-79
2024/02/13 09:45:56;;;;;;;29.98;15.43;;;;;;;5.16;97.03;100564.34;10433395;28;20052;-81
2024/02/13 09:51:08;;;;;;;26.75;15.35;;;;;;;5.36;95.88;100576.53;10452452;28;20044;-80
2024/02/13 09:56:14;;;;;;;29.43;16.87;;;;;;;5.42;96.10;100589.50;10439836;28;20048;-80
2024/02/13 10:01:17;;;;;;;30.10;16.30;;;;;;;5.50;95.87;100574.81;10438979;28;20338;-78
2024/02/13 10:06:23;;;;;;;24.23;13.52;;;;;;;5.16;95.60;100607.81;10417218;28;20053;-78
2024/02/13 10:11:31;;;;;;;24.35;13.50;;;;;;;6.38;90.55;100596.34;10439563;28;20056;-79
2024/02/13 10:16:34;;;;;;;25.63;12.38;;;;;;;7.06;85.90;100593.09;10416044;28;20171;-80
2024/02/13 10:21:42;;;;;;;23.15;12.38;;;;;;;7.20;82.77;100600.25;10407524;28;20055;-78
2024/02/13 10:26:45;;;;;;;15.05;8.15;;;;;;;6.29;84.44;100599.59;10452991;28;20056;-80
2024/02/13 10:31:49;;;;;;;17.38;9.07;;;;;;;6.26;86.37;100602.44;10465643;28;20044;-80
2024/02/13 10:36:53;;;;;;;14.95;8.70;;;;;;;6.60;84.17;100609.25;10454976;28;20123;-78
2024/02/13 10:41:58;;;;;;;18.50;9.93;;;;;;;6.80;82.71;100605.38;10466035;28;20045;-80
2024/02/13 10:47:03;;;;;;;14.55;6.72;;;;;;;6.37;83.49;100610.66;10465835;28;20044;-78
2024/02/13 10:52:08;;;;;;;12.55;8.48;;;;;;;6.79;83.00;100601.00;10456403;28;20060;-80
2024/02/13 10:57:13;;;;;;;16.15;9.15;;;;;;;6.89;81.79;100604.84;10454259;28;20863;-78
2024/02/13 11:02:18;;;;;;;16.48;8.68;;;;;;;7.37;80.40;100602.69;10460367;28;20538;-81
2024/02/13 11:07:24;;;;;;;11.23;5.22;;;;;;;5.82;85.26;100614.75;10458196;28;20059;-78
2024/02/13 11:12:27;;;;;;;17.65;8.18;;;;;;;6.76;82.75;100598.50;10437276;28;20419;-79
2024/02/13 11:17:32;;;;;;;15.57;7.50;;;;;;;6.45;84.57;100610.22;10434006;28;20058;-78
2024/02/13 11:22:44;;;;;;;13.40;6.55;;;;;;;7.71;78.49;100608.53;10430112;28;21239;-78
2024/02/13 11:27:48;;;;;;;16.55;7.25;;;;;;;7.26;80.79;100608.72;10462051;28;21284;-79
2024/02/13 11:32:58;;;;;;;16.25;6.57;;;;;;;6.96;80.42;100608.84;10450143;28;20052;-79
2024/02/13 11:38:12;;;;;;;14.10;5.63;;;;;;;6.48;84.46;100599.34;10412313;28;20048;-77
2024/02/13 11:43:20;;;;;;;10.55;3.80;;;;;;;6.60;80.44;100619.94;10431441;28;20797;-82
2024/02/13 11:48:25;;;;;;;10.93;4.28;;;;;;;6.83;80.83;100600.72;10430895;28;20076;-80
2024/02/13 11:53:35;;;;;;;9.00;3.75;;;;;;;7.57;77.20;100596.06;10417373;28;20059;-79
2024/02/13 11:58:38;;;;;;;11.20;4.00;;;;;;;7.43;77.36;100596.09;10422922;28;20060;-82
2024/02/13 12:03:41;;;;;;;13.27;4.13;;;;;;;7.27;77.83;100597.09;10434178;28;20097;-79
2024/02/13 12:08:46;;;;;;;12.63;4.13;;;;;;;6.86;78.00;100602.34;10452672;28;20100;-80
2024/02/13 12:13:50;;;;;;;11.32;3.72;;;;;;;7.44;77.01;100603.16;10448363;28;20049;-80
2024/02/13 12:18:53;;;;;;;9.57;3.22;;;;;;;7.30;76.87;100590.69;10454782;28;20044;-78
2024/02/13 12:24:01;;;;;;;14.85;3.35;;;;;;;7.45;74.73;100604.88;10440401;28;20059;-78
2024/02/13 12:29:14;;;;;;;8.70;4.07;;;;;;;7.27;75.75;100597.09;10446332;28;20045;-80
2024/02/13 12:34:21;;;;;;;5.05;2.38;;;;;;;7.12;76.30;100589.19;10420090;28;20048;-79
2024/02/13 12:39:27;;;;;;;11.75;3.53;;;;;;;7.50;76.39;100590.25;10443990;28;20182;-80
2024/02/13 12:44:32;;;;;;;13.23;3.97;;;;;;;7.95;73.04;100585.53;10426347;28;20056;-80
2024/02/13 12:49:37;;;;;;;9.13;3.13;;;;;;;7.36;75.74;100602.81;10430902;28;20053;-80
2024/02/13 12:54:43;;;;;;;7.60;2.63;;;;;;;7.13;74.20;100596.22;10455745;28;20518;-81
2024/02/13 12:59:47;;;;;;;5.57;1.92;;;;;;;7.52;72.49;100590.16;10463850;28;20055;-80
2024/02/13 13:04:52;;;;;;;4.32;2.65;;;;;;;7.83;70.13;100585.47;10457420;28;20098;-80
2024/02/13 13:09:56;;;;;;;6.47;2.00;;;;;;;9.45;64.14;100582.19;10461639;28;20114;-80
2024/02/13 13:14:59;;;;;;;4.35;1.23;;;;;;;9.71;61.37;100579.44;10452972;28;20660;-82
2024/02/13 13:20:17;;;;;;;5.75;2.05;;;;;;;8.94;64.64;100582.31;10456068;28;20069;-81
2024/02/13 13:25:25;;;;;;;5.03;2.05;;;;;;;8.29;67.02;100583.22;10457596;28;20466;-82
2024/02/13 13:30:28;;;;;;;4.25;2.20;;;;;;;7.73;70.41;100586.09;10456607;28;20112;-80
2024/02/13 13:35:35;;;;;;;4.53;2.10;;;;;;;7.30;70.60;100613.88;10440816;28;20112;-79
2024/02/13 13:40:39;;;;;;;4.00;1.80;;;;;;;7.81;69.32;100582.88;10442604;28;20134;-81
2024/02/13 13:45:52;;;;;;;4.65;1.85;;;;;;;7.47;67.79;100589.59;10454909;28;20063;-78
2024/02/13 13:50:55;;;;;;;7.50;1.95;;;;;;;7.31;70.49;100589.72;10447659;28;20659;-81
2024/02/13 13:56:00;;;;;;;7.72;1.70;;;;;;;7.92;67.79;100590.19;10447424;28;20040;-80
2024/02/13 14:01:03;;;;;;;10.40;2.05;;;;;;;7.66;68.07;100581.25;10444723;28;20049;-80
2024/02/13 14:06:07;;;;;;;10.15;2.65;;;;;;;7.78;68.33;100580.41;10425835;28;20629;-81
2024/02/13 14:11:11;;;;;;;5.95;1.63;;;;;;;8.01;67.62;100572.66;10417076;28;20074;-79
2024/02/13 14:16:15;;;;;;;3.35;1.38;;;;;;;8.22;64.56;100573.03;10434741;28;20056;-79
2024/02/13 14:21:23;;;;;;;4.88;1.42;;;;;;;7.79;67.34;100583.94;10440181;28;20053;-80
2024/02/13 14:26:28;;;;;;;6.28;2.10;;;;;;;7.66;68.43;100582.09;10441324;28;20052;-81
2024/02/13 14:31:31;;;;;;;1.40;0.77;;;;;;;7.44;68.94;100593.31;10439888;28;20049;-79
2024/02/13 14:36:37;;;;;;;7.75;2.00;;;;;;;8.48;64.12;100590.88;10447018;28;20053;-77
2024/02/13 14:41:53;;;;;;;6.85;1.80;;;;;;;8.04;67.23;100586.72;10464089;28;20080;-80
2024/02/13 14:46:57;;;;;;;9.82;2.05;;;;;;;7.81;67.64;100584.72;10451105;28;20056;-79
2024/02/13 14:52:01;;;;;;;4.60;1.55;;;;;;;7.36;68.94;100594.78;10444918;28;20116;-79
2024/02/13 14:57:06;;;;;;;6.28;2.05;;;;;;;7.69;66.77;100587.22;10478445;28;20052;-80
2024/02/13 15:02:11;;;;;;;3.42;1.40;;;;;;;7.28;67.37;100616.66;10474400;28;20151;-78
2024/02/13 15:07:14;;;;;;;4.63;1.70;;;;;;;7.21;67.96;100591.25;10487630;28;20048;-79
2024/02/13 15:12:20;;;;;;;4.45;1.75;;;;;;;7.64;67.25;100588.50;10470297;28;20052;-79
2024/02/13 15:17:23;;;;;;;6.50;1.92;;;;;;;7.72;66.93;100576.34;10461081;28;20055;-78
2024/02/13 15:22:30;;;;;;;4.15;1.33;;;;;;;7.70;65.45;100583.59;10456352;28;20162;-79
2024/02/13 15:27:34;;;;;;;8.80;1.50;;;;;;;7.97;64.55;100590.75;10460971;28;20068;-80
2024/02/13 15:32:37;;;;;;;4.35;1.50;;;;;;;7.66;65.60;100589.25;10462978;28;20044;-82
2024/02/13 15:48:25;;;;;;;5.47;1.80;;;;;;;7.35;66.80;100588.59;10453861;28;20048;-81
2024/02/13 15:53:30;;;;;;;4.90;1.50;;;;;;;7.67;65.73;100589.16;10466333;28;20061;-79
2024/02/13 15:58:35;;;;;;;4.03;1.20;;;;;;;7.24;67.28;100593.72;10458096;28;20045;-78
2024/02/13 16:03:39;;;;;;;4.50;1.42;;;;;;;7.21;67.74;100583.25;10453355;28;20524;-79
2024/02/13 16:08:42;;;;;;;5.88;1.83;;;;;;;7.47;67.06;100578.91;10450442;28;20056;-79
2024/02/13 16:13:47;;;;;;;6.10;1.83;;;;;;;7.49;67.60;100579.69;10459750;28;20045;-79
2024/02/13 16:18:50;;;;;;;5.47;2.00;;;;;;;7.21;68.25;100592.16;10471510;28;20131;-82
2024/02/13 16:23:54;;;;;;;7.72;1.80;;;;;;;7.36;67.57;100600.13;10455847;28;21225;-79
2024/02/13 16:28:58;;;;;;;2.83;1.40;;;;;;;7.20;67.28;100602.91;10452786;28;20091;-80
2024/02/13 16:34:01;;;;;;;2.45;1.88;;;;;;;7.14;67.63;100596.16;10438596;28;20060;-77
2024/02/13 16:39:05;;;;;;;6.07;1.75;;;;;;;7.22;67.28;100611.69;10438405;28;20059;-81
2024/02/13 16:44:12;;;;;;;9.40;2.60;;;;;;;7.26;66.85;100616.72;10468665;28;20114;-79
2024/02/13 16:49:15;;;;;;;4.68;2.35;;;;;;;7.32;67.15;100612.81;10450314;28;20113;-82
2024/02/13 16:54:19;;;;;;;4.63;1.70;;;;;;;7.30;67.06;100611.22;10454378;28;20077;-81
2024/02/13 16:59:24;;;;;;;1.70;1.45;;;;;;;7.19;66.91;100611.91;10440632;28;20050;-80
2024/02/13 17:04:27;;;;;;;5.13;1.77;;;;;;;7.20;67.54;100617.13;10442837;28;20069;-80
2024/02/13 17:09:30;;;;;;;3.60;2.00;;;;;;;7.15;67.92;100618.38;10443045;28;20736;-81
2024/02/13 17:14:35;;;;;;;4.93;2.20;;;;;;;7.03;67.53;100622.69;10450901;28;20056;-80
2024/02/13 17:19:38;;;;;;;4.35;1.90;;;;;;;6.97;67.67;100618.59;10436251;28;20052;-81
2024/02/13 17:24:41;;;;;;;3.20;1.67;;;;;;;6.89;67.91;100617.34;10442538;28;20057;-82
2024/02/13 17:29:46;;;;;;;5.30;1.70;;;;;;;6.67;68.46;100623.97;10440781;28;20515;-79
2024/02/13 17:34:49;;;;;;;3.25;1.65;;;;;;;6.67;68.65;100628.44;10454455;28;20059;-79
2024/02/13 17:39:52;;;;;;;5.88;1.90;;;;;;;6.76;68.48;100620.72;10456005;28;20064;-79
2024/02/13 17:44:57;;;;;;;4.63;1.80;;;;;;;6.44;68.97;100612.00;10432280;28;20131;-80
2024/02/13 17:50:00;;;;;;;3.13;1.88;;;;;;;6.48;69.46;100621.56;10446724;28;20108;-81
2024/02/13 17:55:03;;;;;;;8.18;2.42;;;;;;;6.30;70.29;100619.97;10442892;28;20498;-80
2024/02/13 18:00:18;;;;;;;10.02;4.47;;;;;;;6.39;69.19;100614.09;10422933;28;20068;-80
2024/02/13 18:05:21;;;;;;;5.75;2.00;;;;;;;6.48;68.39;100607.34;10441689;28;20057;-79
2024/02/13 18:10:25;;;;;;;4.50;2.10;;;;;;;6.50;67.39;100608.97;10444527;28;20073;-80
2024/02/13 18:15:29;;;;;;;9.00;2.38;;;;;;;6.59;66.78;100608.41;10449163;28;20078;-82
2024/02/13 18:20:33;;;;;;;3.53;2.03;;;;;;;6.58;66.87;100613.81;10444826;28;20048;-81
2024/02/13 18:25:37;;;;;;;3.45;2.30;;;;;;;6.55;66.69;100612.19;10451385;28;20074;-81
2024/02/13 18:30:42;;;;;;;2.88;1.95;;;;;;;6.45;67.22;100602.22;10448489;28;20049;-79
2024/02/13 18:35:45;;;;;;;3.00;1.80;;;;;;;6.61;66.47;100608.34;10423568;28;20469;-83
2024/02/13 18:40:49;;;;;;;3.03;2.13;;;;;;;6.57;66.62;100598.78;10433174;28;20049;-82
2024/02/13 18:45:53;;;;;;;9.82;1.95;;;;;;;6.59;66.41;100603.06;10454831;28;20065;-78
2024/02/13 18:50:56;;;;;;;5.45;1.90;;;;;;;6.62;66.44;100600.22;10413928;28;20081;-83
2024/02/13 18:56:00;;;;;;;4.40;2.00;;;;;;;6.63;66.50;100593.91;10416023;28;20044;-82
2024/02/13 19:01:04;;;;;;;2.30;1.75;;;;;;;6.65;66.42;100600.97;10391425;28;20050;-80
2024/02/13 19:06:07;;;;;;;5.13;2.15;;;;;;;6.58;66.73;100596.03;10393763;28;20055;-82
2024/02/13 19:11:11;;;;;;;7.10;2.10;;;;;;;6.45;67.22;100602.22;10445737;28;20060;-81
2024/02/13 19:16:16;;;;;;;3.38;1.77;;;;;;;6.65;66.75;100599.16;10419022;28;20065;-79
2024/02/13 19:21:20;;;;;;;1.40;1.23;;;;;;;6.46;66.86;100607.44;10408141;28;20053;-81
2024/02/13 19:26:23;;;;;;;5.53;1.95;;;;;;;6.63;67.12;100596.56;10420171;28;20049;-82
2024/02/13 19:31:28;;;;;;;4.35;1.70;;;;;;;6.53;67.73;100583.91;10411588;28;20063;-81
2024/02/13 19:36:31;;;;;;;4.15;2.10;;;;;;;6.59;67.63;100586.22;10407832;28;20052;-80
2024/02/13 19:41:34;;;;;;;2.80;2.08;;;;;;;6.43;68.44;100582.75;10402251;28;20045;-80
2024/02/13 19:46:39;;;;;;;4.45;2.03;;;;;;;6.43;69.09;100580.94;10406729;28;20147;-77
2024/02/13 19:51:42;;;;;;;4.78;2.40;;;;;;;6.44;68.92;100579.97;10410972;28;20711;-79
2024/02/13 19:56:45;;;;;;;6.05;2.72;;;;;;;6.45;69.51;100576.38;10415465;28;20155;-79
2024/02/13 20:01:53;;;;;;;2.88;2.38;;;;;;;6.53;68.68;100573.25;10451632;28;20056;-81
2024/02/13 20:06:59;;;;;;;3.92;2.40;;;;;;;6.63;68.89;100577.03;10456822;28;20045;-80
2024/02/13 20:12:06;;;;;;;3.70;2.42;;;;;;;6.51;69.52;100578.66;10451999;28;20071;-79
2024/02/13 20:17:10;;;;;;;4.07;2.58;;;;;;;6.72;68.96;100583.63;10452363;28;20049;-78
2024/02/13 20:22:14;;;;;;;7.07;2.50;;;;;;;6.68;69.28;100576.78;10442876;28;20083;-79
2024/02/13 20:27:17;;;;;;;3.65;2.55;;;;;;;6.80;68.80;100576.00;10444624;28;20064;-82
2024/02/13 20:32:21;;;;;;;5.82;2.55;;;;;;;6.49;69.98;100569.03;10446544;28;20053;-78
2024/02/13 20:37:25;;;;;;;3.65;2.13;;;;;;;6.56;70.11;100565.03;10455130;28;20516;-79
2024/02/13 20:42:28;;;;;;;4.13;2.45;;;;;;;6.61;70.59;100561.13;10439902;28;20062;-80
2024/02/13 20:47:32;;;;;;;4.68;2.58;;;;;;;6.71;70.57;100582.75;10451732;28;20052;-82
2024/02/13 20:52:36;;;;;;;4.35;2.63;;;;;;;6.63;70.88;100569.03;10436511;28;20079;-79
2024/02/13 20:57:40;;;;;;;3.15;2.45;;;;;;;6.56;71.73;100567.72;10439700;28;20044;-78
2024/02/13 21:02:47;;;;;;;5.25;2.40;;;;;;;6.60;71.59;100563.88;10439099;28;20139;-81
2024/02/13 21:07:50;;;;;;;4.00;2.00;;;;;;;6.70;71.23;100567.72;10443929;28;20062;-80
2024/02/13 21:12:55;;;;;;;2.78;2.30;;;;;;;6.54;71.97;100567.78;10424098;28;21717;-82
2024/02/13 21:17:59;;;;;;;3.65;2.45;;;;;;;6.78;71.11;100569.91;10451369;28;20052;-82
2024/02/13 21:28:24;;;;;;;6.30;2.67;;;;;;;6.71;72.10;100569.41;10405869;28;20120;-79
2024/02/13 21:33:28;;;;;;;5.72;2.90;;;;;;;6.70;72.08;100565.03;10437334;28;20159;-78
2024/02/13 21:38:32;;;;;;;6.75;2.92;;;;;;;6.73;72.81;100564.00;10450266;28;20061;-78
2024/02/13 21:43:37;;;;;;;4.78;2.67;;;;;;;6.71;72.55;100558.75;10449925;28;20045;-79
2024/02/13 21:48:42;;;;;;;3.30;2.67;;;;;;;6.47;74.40;100558.44;10459358;28;20041;-79
2024/02/13 21:53:47;;;;;;;6.63;2.67;;;;;;;6.94;73.61;100540.44;10459248;28;20056;-78
2024/02/13 21:58:50;;;;;;;6.45;2.53;;;;;;;6.56;75.07;100549.88;10457700;28;20125;-79
2024/02/13 22:03:56;;;;;;;3.75;2.50;;;;;;;6.82;74.71;100548.25;10458217;28;20062;-81
2024/02/13 22:09:00;;;;;;;7.82;2.53;;;;;;;6.82;74.75;100540.22;10387741;28;20182;-79
2024/02/13 22:14:03;;;;;;;10.98;3.22;;;;;;;6.93;74.71;100539.59;10378246;28;20046;-82
2024/02/13 22:19:07;;;;;;;4.70;2.70;;;;;;;6.82;75.51;100537.56;10395393;28;20045;-81
2024/02/13 22:24:10;;;;;;;7.00;2.92;;;;;;;6.77;76.19;100534.31;10396149;28;20527;-81
2024/02/13 22:29:13;;;;;;;4.60;2.72;;;;;;;6.67;77.00;100519.00;10403368;28;20049;-81
2024/02/13 22:34:21;;;;;;;6.03;2.92;;;;;;;6.68;76.96;100516.22;10400111;28;20060;-82
2024/02/13 22:39:24;;;;;;;5.18;3.15;;;;;;;6.78;76.97;100513.84;10411790;28;20049;-82
2024/02/13 22:44:28;;;;;;;3.75;2.60;;;;;;;6.50;78.31;100510.22;10418446;28;20060;-81
2024/02/13 22:49:33;;;;;;;7.50;3.55;;;;;;;6.62;78.13;100495.25;10408608;28;20048;-82
2024/02/13 22:54:36;;;;;;;3.95;2.97;;;;;;;6.51;79.08;100484.41;10412258;28;20056;-78
2024/02/13 22:59:39;;;;;;;6.65;3.17;;;;;;;6.36;80.05;100489.75;10408890;28;20928;-80
2024/02/13 23:04:50;;;;;;;6.65;3.50;;;;;;;6.39;80.24;100486.88;10412056;28;20053;-79
2024/02/13 23:09:53;;;;;;;6.68;3.42;;;;;;;6.44;80.15;100477.72;10413067;28;20539;-80
2024/02/13 23:14:55;;;;;;;6.68;4.07;;;;;;;6.39;80.66;100478.03;10420292;28;20057;-80
2024/02/13 23:20:01;;;;;;;6.03;3.78;;;;;;;6.39;80.47;100478.88;10413591;28;20072;-81
2024/02/13 23:25:06;;;;;;;6.35;3.75;;;;;;;6.18;81.73;100485.53;10395112;28;20136;-80
2024/02/13 23:30:10;;;;;;;8.27;4.05;;;;;;;6.35;81.14;100490.66;10391980;28;20049;-80